createdAt,value
2019-03-15T00:00:44.906Z,5.90
2019-03-15T00:03:14.524Z,5.90
2019-03-15T00:05:44.160Z,5.80
2019-03-15T00:08:13.774Z,5.80
2019-03-15T00:10:43.444Z,5.80
2019-03-15T00:13:13.078Z,5.80
2019-03-15T00:15:42.789Z,5.80
2019-03-15T00:18:12.404Z,5.80
2019-03-15T00:20:42.092Z,5.80
2019-03-15T00:23:11.700Z,5.80
2019-03-15T00:25:41.336Z,5.80
2019-03-15T00:28:10.983Z,5.80
2019-03-15T00:30:40.625Z,5.80
2019-03-15T00:33:10.236Z,5.70
2019-03-15T00:35:39.877Z,5.80
2019-03-15T00:38:09.489Z,5.80
2019-03-15T00:40:39.125Z,5.80
2019-03-15T00:43:08.738Z,5.80
2019-03-15T00:45:38.377Z,5.90
2019-03-15T00:48:07.989Z,5.90
2019-03-15T00:50:37.688Z,5.80
2019-03-15T00:53:07.329Z,5.80
2019-03-15T00:55:36.953Z,5.80
2019-03-15T00:58:06.587Z,5.80
2019-03-15T01:00:36.198Z,5.80
2019-03-15T01:03:05.832Z,5.80
2019-03-15T01:05:35.448Z,5.80
2019-03-15T01:08:05.083Z,5.80
2019-03-15T01:10:34.825Z,5.80
2019-03-15T01:13:04.464Z,5.80
2019-03-15T01:15:34.072Z,5.70
2019-03-15T01:18:03.711Z,5.70
2019-03-15T01:20:33.320Z,5.70
2019-03-15T01:23:02.961Z,5.70
2019-03-15T01:25:32.573Z,5.70
2019-03-15T01:28:02.212Z,5.70
2019-03-15T01:30:31.968Z,5.70
2019-03-15T01:33:01.614Z,5.70
2019-03-15T01:35:33.560Z,5.70
2019-03-15T01:38:02.488Z,5.60
2019-03-15T01:40:32.156Z,5.60
2019-03-15T01:43:01.796Z,5.70
2019-03-15T01:45:31.416Z,5.90
2019-03-15T01:48:01.068Z,5.90
2019-03-15T01:50:30.669Z,5.90
2019-03-15T01:53:00.306Z,5.90
2019-03-15T01:55:29.912Z,5.80
2019-03-15T01:57:59.548Z,5.90
2019-03-15T02:00:29.319Z,5.90
2019-03-15T02:03:02.132Z,5.90
2019-03-15T02:05:30.193Z,5.90
2019-03-15T02:08:00.649Z,6.00
2019-03-15T02:10:30.605Z,6.00
2019-03-15T02:13:00.236Z,6.00
2019-03-15T02:15:29.845Z,6.00
2019-03-15T02:17:59.492Z,6.00
2019-03-15T02:20:29.108Z,6.00
2019-03-15T02:22:58.760Z,6.00
2019-03-15T02:25:28.354Z,6.00
2019-03-15T02:27:57.992Z,6.00
2019-03-15T02:30:27.677Z,6.00
2019-03-15T02:32:57.310Z,6.00
2019-03-15T02:35:26.944Z,6.00
2019-03-15T02:37:56.557Z,6.00
2019-03-15T02:40:26.790Z,6.10
2019-03-15T02:42:56.425Z,6.10
2019-03-15T02:45:26.035Z,6.10
2019-03-15T02:47:55.676Z,6.10
2019-03-15T02:50:25.293Z,6.10
2019-03-15T02:52:54.992Z,6.00
2019-03-15T02:55:24.868Z,6.10
2019-03-15T02:57:54.578Z,6.10
2019-03-15T03:00:24.259Z,6.20
2019-03-15T03:02:54.219Z,6.10
2019-03-15T03:05:24.106Z,6.20
2019-03-15T03:07:53.743Z,6.20
2019-03-15T03:10:23.453Z,6.20
2019-03-15T03:12:53.097Z,6.10
2019-03-15T03:15:22.713Z,6.00
2019-03-15T03:17:52.354Z,6.00
2019-03-15T03:20:21.983Z,6.00
2019-03-15T03:22:51.618Z,6.00
2019-03-15T03:25:21.237Z,6.00
2019-03-15T03:27:50.846Z,6.10
2019-03-15T03:30:20.537Z,6.00
2019-03-15T03:32:50.161Z,6.00
2019-03-15T03:35:19.902Z,6.00
2019-03-15T03:37:50.060Z,6.00
2019-03-15T03:40:20.787Z,6.10
2019-03-15T03:42:50.821Z,6.00
2019-03-15T03:45:23.208Z,6.00
2019-03-15T03:47:51.693Z,6.00
2019-03-15T03:50:21.389Z,6.10
2019-03-15T03:52:51.005Z,5.90
2019-03-15T03:55:21.081Z,5.90
2019-03-15T03:57:50.767Z,5.90
2019-03-15T04:00:20.559Z,6.00
2019-03-15T04:02:53.110Z,6.00
2019-03-15T04:05:21.442Z,5.90
2019-03-15T04:07:51.057Z,5.90
2019-03-15T04:10:20.757Z,5.80
2019-03-15T04:12:50.329Z,5.80
2019-03-15T04:15:20.038Z,5.90
2019-03-15T04:17:49.652Z,5.80
2019-03-15T04:20:19.288Z,5.90
2019-03-15T04:22:48.913Z,5.90
2019-03-15T04:25:19.163Z,5.80
2019-03-15T04:27:48.749Z,5.80
2019-03-15T04:30:18.489Z,5.70
2019-03-15T04:32:48.109Z,5.70
2019-03-15T04:35:17.831Z,5.80
2019-03-15T04:37:47.460Z,5.80
2019-03-15T04:40:17.118Z,6.00
2019-03-15T04:42:46.729Z,6.30
2019-03-15T04:45:16.381Z,6.40
2019-03-15T04:47:45.988Z,6.10
2019-03-15T04:50:15.747Z,6.00
2019-03-15T04:52:45.365Z,5.90
2019-03-15T04:55:15.005Z,5.90
2019-03-15T04:57:44.625Z,5.70
2019-03-15T05:00:14.726Z,5.70
2019-03-15T05:02:44.338Z,5.70
2019-03-15T05:05:13.985Z,5.70
2019-03-15T05:07:43.602Z,5.70
2019-03-15T05:10:13.243Z,5.70
2019-03-15T05:12:42.864Z,5.60
2019-03-15T05:15:12.664Z,5.70
2019-03-15T05:17:42.281Z,5.70
2019-03-15T05:20:12.215Z,5.80
2019-03-15T05:22:41.827Z,5.80
2019-03-15T05:25:11.605Z,5.70
2019-03-15T05:27:41.221Z,5.70
2019-03-15T05:30:11.744Z,5.80
2019-03-15T05:32:41.359Z,5.90
2019-03-15T05:35:11.236Z,5.90
2019-03-15T05:37:40.845Z,5.80
2019-03-15T05:40:11.010Z,5.90
2019-03-15T05:42:40.625Z,5.90
2019-03-15T05:45:11.210Z,5.90
2019-03-15T05:47:40.881Z,5.90
2019-03-15T05:50:12.377Z,5.90
2019-03-15T05:52:41.986Z,5.90
2019-03-15T05:55:13.469Z,5.90
2019-03-15T05:57:43.085Z,5.80
2019-03-15T06:00:14.307Z,5.90
2019-03-15T06:02:43.920Z,5.90
2019-03-15T06:05:13.697Z,5.90
2019-03-15T06:07:43.341Z,5.80
2019-03-15T06:10:13.780Z,5.90
2019-03-15T06:12:43.392Z,5.90
2019-03-15T06:15:13.285Z,6.00
2019-03-15T06:17:42.909Z,6.00
2019-03-15T06:20:13.427Z,6.10
2019-03-15T06:22:43.074Z,6.20
2019-03-15T06:25:12.849Z,6.30
2019-03-15T06:27:42.672Z,6.40
2019-03-15T06:30:15.911Z,6.40
2019-03-15T06:32:45.561Z,6.50
2019-03-15T06:35:15.181Z,6.50
2019-03-15T06:37:44.830Z,6.60
2019-03-15T06:40:14.504Z,6.70
2019-03-15T06:42:44.148Z,6.70
2019-03-15T06:45:14.810Z,6.80
2019-03-15T06:47:44.443Z,6.80
2019-03-15T06:50:15.615Z,6.80
2019-03-15T06:52:45.261Z,6.90
2019-03-15T06:55:14.947Z,6.90
2019-03-15T06:57:44.590Z,6.90
2019-03-15T07:00:15.709Z,6.90
2019-03-15T07:02:46.056Z,6.90
2019-03-15T07:05:15.969Z,6.90
2019-03-15T07:07:45.683Z,6.90
2019-03-15T07:10:15.562Z,6.90
2019-03-15T07:12:45.200Z,6.90
2019-03-15T07:15:14.975Z,6.90
2019-03-15T07:17:44.634Z,7.00
2019-03-15T07:20:18.677Z,7.00
2019-03-15T07:22:48.388Z,6.90
2019-03-15T07:25:18.068Z,6.90
2019-03-15T07:27:47.709Z,6.90
2019-03-15T07:30:17.942Z,7.00
2019-03-15T07:32:47.753Z,7.00
2019-03-15T07:35:17.375Z,7.00
2019-03-15T07:37:47.672Z,7.00
2019-03-15T07:40:18.279Z,7.00
2019-03-15T07:42:48.296Z,6.90
2019-03-15T07:45:17.980Z,7.00
2019-03-15T07:47:47.629Z,7.00
2019-03-15T07:50:17.382Z,7.00
2019-03-15T07:52:47.021Z,7.10
2019-03-15T07:55:16.632Z,7.10
2019-03-15T07:57:46.277Z,7.10
2019-03-15T08:00:17.172Z,7.10
2019-03-15T08:02:46.886Z,7.00
2019-03-15T08:05:16.667Z,7.00
2019-03-15T08:07:46.309Z,7.10
2019-03-15T08:10:16.065Z,7.10
2019-03-15T08:12:49.164Z,7.10
2019-03-15T08:15:17.012Z,7.10
2019-03-15T08:17:46.649Z,7.00
2019-03-15T08:20:16.538Z,7.00
2019-03-15T08:22:46.183Z,7.00
2019-03-15T08:25:15.793Z,7.10
2019-03-15T08:27:45.433Z,7.10
2019-03-15T08:30:16.302Z,7.10
2019-03-15T08:32:45.950Z,7.10
2019-03-15T08:35:15.774Z,7.10
2019-03-15T08:37:45.439Z,7.10
2019-03-15T08:40:15.574Z,7.10
2019-03-15T08:42:45.215Z,7.20
2019-03-15T08:45:22.337Z,7.20
2019-03-15T08:47:51.972Z,7.10
2019-03-15T08:50:24.358Z,7.10
2019-03-15T08:52:54.237Z,7.10
2019-03-15T08:55:24.128Z,7.20
2019-03-15T08:57:53.782Z,7.10
2019-03-15T09:00:23.377Z,7.10
2019-03-15T09:02:53.026Z,7.10
2019-03-15T09:05:22.652Z,7.10
2019-03-15T09:07:52.349Z,7.20
2019-03-15T09:10:23.841Z,7.20
2019-03-15T09:12:53.248Z,7.30
2019-03-15T09:15:22.876Z,7.30
2019-03-15T09:17:52.514Z,7.30
2019-03-15T09:20:22.376Z,7.30
2019-03-15T09:22:52.032Z,7.30
2019-03-15T09:25:21.718Z,7.30
2019-03-15T09:27:51.328Z,7.30
2019-03-15T09:30:24.641Z,7.40
2019-03-15T09:32:52.216Z,7.40
2019-03-15T09:35:21.857Z,7.40
2019-03-15T09:37:51.473Z,7.40
2019-03-15T09:40:21.199Z,7.50
2019-03-15T09:42:50.875Z,7.60
2019-03-15T09:45:20.508Z,7.60
2019-03-15T09:47:50.124Z,7.50
2019-03-15T09:50:30.755Z,7.60
2019-03-15T09:52:51.061Z,7.60
2019-03-15T09:55:32.326Z,7.70
2019-03-15T09:57:52.014Z,7.80
2019-03-15T10:00:21.824Z,7.90
2019-03-15T10:02:51.508Z,8.00
2019-03-15T10:05:21.154Z,8.10
2019-03-15T10:07:51.435Z,8.20
2019-03-15T10:10:21.093Z,8.30
2019-03-15T10:12:50.768Z,8.40
2019-03-15T10:15:20.448Z,8.40
2019-03-15T10:17:50.065Z,8.50
2019-03-15T10:20:19.794Z,8.50
2019-03-15T10:23:04.623Z,8.60
2019-03-15T10:25:20.659Z,8.70
2019-03-15T10:27:50.273Z,8.70
2019-03-15T10:30:21.978Z,8.70
2019-03-15T10:32:51.660Z,8.80
2019-03-15T10:35:21.298Z,8.80
2019-03-15T10:37:50.911Z,8.90
2019-03-15T10:40:22.398Z,8.90
2019-03-15T10:42:55.265Z,8.90
2019-03-15T10:45:23.269Z,8.90
2019-03-15T10:47:52.898Z,8.90
2019-03-15T10:50:22.697Z,8.90
2019-03-15T10:52:53.848Z,9.00
2019-03-15T10:55:23.833Z,9.00
2019-03-15T10:57:53.452Z,8.90
2019-03-15T11:00:23.176Z,9.00
2019-03-15T11:02:52.774Z,9.00
2019-03-15T11:05:22.417Z,9.00
2019-03-15T11:07:52.045Z,9.00
2019-03-15T11:10:21.713Z,9.00
2019-03-15T11:12:51.336Z,9.00
2019-03-15T11:15:20.969Z,9.10
2019-03-15T11:17:50.593Z,9.10
2019-03-15T11:20:20.344Z,9.10
2019-03-15T11:22:50.023Z,9.20
2019-03-15T11:25:19.657Z,9.20
2019-03-15T11:27:49.283Z,9.20
2019-03-15T11:30:18.925Z,9.20
2019-03-15T11:32:48.544Z,9.30
2019-03-15T11:35:21.125Z,9.30
2019-03-15T11:37:49.421Z,9.40
2019-03-15T11:40:19.631Z,9.40
2019-03-15T11:42:49.388Z,9.40
2019-03-15T11:45:19.024Z,9.50
2019-03-15T11:48:02.794Z,9.50
2019-03-15T11:50:21.188Z,9.60
2019-03-15T11:52:50.817Z,9.60
2019-03-15T11:55:20.459Z,9.60
2019-03-15T11:57:50.067Z,9.60
2019-03-15T12:00:22.762Z,9.60
2019-03-15T12:02:52.356Z,9.60
2019-03-15T12:05:21.994Z,9.70
2019-03-15T12:07:51.681Z,9.70
2019-03-15T12:10:21.401Z,9.70
2019-03-15T12:12:51.017Z,9.60
2019-03-15T12:15:20.829Z,9.60
2019-03-15T12:17:50.445Z,9.60
2019-03-15T12:20:20.180Z,9.60
2019-03-15T12:22:49.795Z,9.60
2019-03-15T12:25:19.432Z,9.60
2019-03-15T12:27:49.051Z,9.60
2019-03-15T12:30:18.942Z,9.60
2019-03-15T12:32:48.555Z,9.60
2019-03-15T12:35:18.206Z,9.60
2019-03-15T12:37:47.816Z,9.70
2019-03-15T12:40:18.496Z,9.60
2019-03-15T12:42:48.103Z,9.60
2019-03-15T12:45:17.757Z,9.70
2019-03-15T12:47:47.373Z,9.70
2019-03-15T12:50:17.048Z,9.70
2019-03-15T12:52:48.313Z,9.70
2019-03-15T12:55:18.001Z,9.70
2019-03-15T12:57:49.268Z,9.70
2019-03-15T13:00:22.065Z,9.70
2019-03-15T13:02:51.664Z,9.80
2019-03-15T13:05:21.321Z,9.80
2019-03-15T13:07:50.924Z,9.90
2019-03-15T13:10:23.936Z,10.00
2019-03-15T13:12:53.565Z,10.00
2019-03-15T13:15:23.206Z,10.00
2019-03-15T13:17:52.835Z,10.00
2019-03-15T13:20:22.603Z,10.00
2019-03-15T13:22:52.230Z,10.00
2019-03-15T13:25:21.861Z,10.10
2019-03-15T13:27:51.484Z,10.00
2019-03-15T13:30:21.225Z,10.00
2019-03-15T13:32:50.850Z,10.00
2019-03-15T13:35:20.496Z,10.00
2019-03-15T13:37:50.197Z,10.00
2019-03-15T13:40:21.780Z,10.00
2019-03-15T13:42:51.411Z,9.90
2019-03-15T13:45:21.117Z,9.90
2019-03-15T13:47:50.800Z,9.90
2019-03-15T13:50:21.674Z,9.90
2019-03-15T13:52:51.284Z,9.90
2019-03-15T13:55:21.000Z,9.90
2019-03-15T13:57:50.642Z,9.90
2019-03-15T14:00:20.638Z,9.90
2019-03-15T14:02:50.260Z,9.90
2019-03-15T14:05:19.968Z,9.90
2019-03-15T14:07:49.671Z,9.90
2019-03-15T14:10:19.448Z,9.90
2019-03-15T14:12:49.083Z,9.90
2019-03-15T14:15:19.846Z,9.90
2019-03-15T14:17:49.491Z,9.90
2019-03-15T14:20:19.105Z,10.00
2019-03-15T14:22:48.746Z,10.00
2019-03-15T14:25:21.204Z,10.00
2019-03-15T14:27:50.847Z,10.00
2019-03-15T14:30:20.595Z,10.00
2019-03-15T14:32:50.505Z,10.00
2019-03-15T14:35:20.117Z,10.10
2019-03-15T14:37:49.951Z,10.10
2019-03-15T14:40:19.591Z,10.10
2019-03-15T14:42:49.318Z,10.20
2019-03-15T14:45:19.042Z,10.20
2019-03-15T14:47:48.636Z,10.20
2019-03-15T14:50:18.340Z,10.30
2019-03-15T14:52:47.972Z,10.30
2019-03-15T14:55:17.960Z,10.30
2019-03-15T14:57:52.715Z,10.30
2019-03-15T15:00:19.780Z,10.30
2019-03-15T15:02:49.522Z,10.30
2019-03-15T15:05:19.148Z,10.30
2019-03-15T15:07:51.716Z,10.30
2019-03-15T15:10:22.953Z,10.30
2019-03-15T15:12:52.602Z,10.30
2019-03-15T15:15:22.222Z,10.30
2019-03-15T15:17:51.869Z,10.30
2019-03-15T15:20:21.647Z,10.30
2019-03-15T15:22:51.296Z,10.30
2019-03-15T15:25:20.964Z,10.40
2019-03-15T15:28:03.519Z,10.30
2019-03-15T15:30:21.846Z,10.40
2019-03-15T15:32:51.494Z,10.40
2019-03-15T15:35:21.113Z,10.40
2019-03-15T15:37:50.767Z,10.50
2019-03-15T15:40:21.001Z,10.50
2019-03-15T15:42:50.637Z,10.50
2019-03-15T15:45:20.267Z,10.50
2019-03-15T15:47:49.908Z,10.50
2019-03-15T15:50:19.594Z,10.50
2019-03-15T15:52:49.241Z,10.50
2019-03-15T15:55:18.937Z,10.50
2019-03-15T15:57:48.588Z,10.50
2019-03-15T16:00:18.978Z,10.40
2019-03-15T16:02:48.626Z,10.40
2019-03-15T16:05:18.313Z,10.40
2019-03-15T16:07:47.952Z,10.40
2019-03-15T16:10:18.621Z,10.40
2019-03-15T16:12:48.401Z,10.40
2019-03-15T16:15:20.941Z,10.40
2019-03-15T16:17:50.729Z,10.40
2019-03-15T16:20:20.409Z,10.40
2019-03-15T16:22:50.057Z,10.40
2019-03-15T16:25:19.688Z,10.40
2019-03-15T16:27:49.397Z,10.40
2019-03-15T16:30:21.741Z,10.50
2019-03-15T16:32:51.384Z,10.50
2019-03-15T16:35:21.008Z,10.50
2019-03-15T16:37:50.729Z,10.50
2019-03-15T16:40:20.449Z,10.40
2019-03-15T16:42:50.095Z,10.40
2019-03-15T16:45:28.115Z,10.40
2019-03-15T16:47:57.828Z,10.40
2019-03-15T16:50:28.153Z,10.40
2019-03-15T16:52:58.030Z,10.50
2019-03-15T16:55:27.657Z,10.60
2019-03-15T16:57:57.332Z,10.50
2019-03-15T17:00:27.121Z,10.50
2019-03-15T17:02:56.772Z,10.50
2019-03-15T17:05:26.460Z,10.40
2019-03-15T17:07:56.108Z,10.40
2019-03-15T17:10:25.862Z,10.40
2019-03-15T17:12:55.988Z,10.40
2019-03-15T17:15:29.144Z,10.40
2019-03-15T17:17:58.799Z,10.40
2019-03-15T17:20:28.557Z,10.40
2019-03-15T17:22:58.196Z,10.40
2019-03-15T17:25:27.833Z,10.40
2019-03-15T17:27:57.468Z,10.40
2019-03-15T17:30:27.120Z,10.40
2019-03-15T17:32:56.761Z,10.40
2019-03-15T17:35:26.390Z,10.40
2019-03-15T17:37:56.051Z,10.40
2019-03-15T17:40:25.736Z,10.40
2019-03-15T17:42:55.376Z,10.40
2019-03-15T17:45:24.993Z,10.40
2019-03-15T17:47:54.632Z,10.50
2019-03-15T17:50:26.118Z,10.50
2019-03-15T17:52:55.775Z,10.50
2019-03-15T17:55:25.464Z,10.40
2019-03-15T17:57:55.115Z,10.40
2019-03-15T18:03:32.503Z,10.70
2019-03-15T18:06:02.116Z,10.70
2019-03-15T18:08:31.764Z,10.50
2019-03-15T18:11:02.148Z,10.50
2019-03-15T18:13:31.784Z,10.50
2019-03-15T18:16:01.500Z,10.40
2019-03-15T18:18:31.182Z,10.50
2019-03-15T18:21:00.813Z,10.50
2019-03-15T18:23:30.525Z,10.40
2019-03-15T18:26:00.147Z,10.40
2019-03-15T18:28:29.801Z,10.50
2019-03-15T18:30:59.733Z,10.50
2019-03-15T18:33:29.380Z,10.50
2019-03-15T18:35:58.998Z,10.50
2019-03-15T18:38:28.653Z,10.50
2019-03-15T18:40:58.272Z,10.50
2019-03-15T18:43:27.927Z,10.50
2019-03-15T18:45:57.543Z,10.50
2019-03-15T18:48:27.175Z,10.50
2019-03-15T18:50:56.947Z,10.50
2019-03-15T18:53:26.557Z,10.40
2019-03-15T18:55:56.201Z,10.40
2019-03-15T18:58:25.829Z,10.40
2019-03-15T19:00:55.474Z,10.40
2019-03-15T19:03:25.097Z,10.50
2019-03-15T19:05:54.742Z,10.40
2019-03-15T19:08:24.364Z,10.40
2019-03-15T19:10:54.172Z,10.40
2019-03-15T19:13:23.801Z,10.40
2019-03-15T19:15:53.453Z,10.40
2019-03-15T19:18:23.065Z,10.40
2019-03-15T19:20:53.701Z,10.40
2019-03-15T19:23:23.465Z,10.40
2019-03-15T19:25:53.104Z,10.40
2019-03-15T19:28:22.724Z,10.40
2019-03-15T19:30:52.373Z,10.40
2019-03-15T19:33:22.006Z,10.40
2019-03-15T19:35:51.643Z,10.40
2019-03-15T19:38:21.262Z,10.40
2019-03-15T19:40:51.030Z,10.40
2019-03-15T19:43:20.646Z,10.50
2019-03-15T19:45:50.292Z,10.50
2019-03-15T19:48:19.909Z,10.50
2019-03-15T19:50:49.552Z,10.40
2019-03-15T19:53:19.171Z,10.40
2019-03-15T19:55:48.891Z,10.50
2019-03-15T19:58:18.514Z,10.50
2019-03-15T20:00:48.289Z,10.50
2019-03-15T20:03:17.912Z,10.50
2019-03-15T20:05:47.624Z,10.50
2019-03-15T20:08:17.236Z,10.50
2019-03-15T20:10:47.361Z,10.60
2019-03-15T20:13:16.982Z,10.60
2019-03-15T20:15:46.616Z,10.60
2019-03-15T20:18:16.236Z,10.60
2019-03-15T20:20:46.397Z,10.60
2019-03-15T20:23:16.025Z,10.60
2019-03-15T20:25:45.669Z,10.60
2019-03-15T20:28:15.289Z,10.60
2019-03-15T20:30:51.690Z,10.60
2019-03-15T20:33:16.357Z,10.50
2019-03-15T20:35:46.027Z,10.50
2019-03-15T20:38:15.639Z,10.50
2019-03-15T20:40:45.446Z,10.50
2019-03-15T20:43:15.065Z,10.50
2019-03-15T20:45:44.713Z,10.50
2019-03-15T20:48:14.341Z,10.50
2019-03-15T20:50:46.967Z,10.40
2019-03-15T20:53:16.556Z,10.40
2019-03-15T20:55:46.281Z,10.50
2019-03-15T20:58:16.022Z,10.50
2019-03-15T21:00:45.664Z,10.50
2019-03-15T21:03:15.509Z,10.40
2019-03-15T21:05:45.168Z,10.40
2019-03-15T21:08:14.792Z,10.40
2019-03-15T21:10:44.419Z,10.40
2019-03-15T21:13:14.066Z,10.40
2019-03-15T21:15:43.680Z,10.40
2019-03-15T21:18:13.332Z,10.40
2019-03-15T21:20:42.945Z,10.40
2019-03-15T21:23:12.701Z,10.40
2019-03-15T21:25:42.320Z,10.40
2019-03-15T21:28:11.971Z,10.40
2019-03-15T21:30:48.488Z,10.30
2019-03-15T21:33:12.965Z,10.30
2019-03-15T21:35:42.672Z,10.30
2019-03-15T21:38:12.345Z,10.30
2019-03-15T21:40:41.971Z,10.30
2019-03-15T21:43:11.693Z,10.20
2019-03-15T21:45:41.315Z,10.20
2019-03-15T21:48:10.961Z,10.20
2019-03-15T21:50:40.581Z,10.20
2019-03-15T21:53:10.240Z,10.20
2019-03-15T21:55:39.928Z,10.20
2019-03-15T21:58:09.513Z,10.10
2019-03-15T22:00:39.141Z,10.10
2019-03-15T22:03:08.860Z,10.00
2019-03-15T22:05:38.550Z,10.10
2019-03-15T22:08:08.202Z,10.00
2019-03-15T22:10:37.883Z,10.00
2019-03-15T22:13:07.592Z,10.00
2019-03-15T22:15:37.208Z,10.00
2019-03-15T22:18:06.852Z,10.00
2019-03-15T22:20:36.477Z,10.00
2019-03-15T22:23:06.131Z,10.00
2019-03-15T22:25:35.743Z,10.00
2019-03-15T22:28:05.388Z,10.00
2019-03-15T22:30:36.492Z,10.00
2019-03-15T22:33:06.263Z,10.00
2019-03-15T22:35:35.880Z,10.00
2019-03-15T22:38:05.593Z,10.00
2019-03-15T22:40:35.280Z,10.00
2019-03-15T22:43:04.962Z,10.00
2019-03-15T22:45:34.587Z,10.00
2019-03-15T22:48:04.225Z,10.00
2019-03-15T22:50:33.849Z,10.00
2019-03-15T22:53:03.560Z,10.00
2019-03-15T22:55:33.180Z,10.00
2019-03-15T22:58:02.821Z,10.00
2019-03-15T23:00:36.763Z,10.00
2019-03-15T23:03:06.692Z,9.90
2019-03-15T23:05:36.312Z,9.90
2019-03-15T23:08:05.955Z,9.90
2019-03-15T23:10:35.637Z,9.90
2019-03-15T23:13:05.316Z,9.90
2019-03-15T23:15:34.934Z,9.90
2019-03-15T23:18:05.560Z,9.80
2019-03-15T23:20:35.181Z,9.90
2019-03-15T23:23:04.883Z,9.80
2019-03-15T23:25:34.609Z,9.80
2019-03-15T23:28:04.426Z,9.70
2019-03-15T23:30:34.116Z,9.70
2019-03-15T23:33:03.820Z,9.70
2019-03-15T23:35:33.442Z,9.70
2019-03-15T23:38:03.072Z,9.70
2019-03-15T23:40:32.705Z,9.70
2019-03-15T23:43:02.584Z,9.70
2019-03-15T23:45:32.200Z,9.70
2019-03-15T23:48:03.353Z,9.70
2019-03-15T23:50:32.937Z,9.70
2019-03-15T23:53:02.625Z,9.70
2019-03-15T23:55:32.248Z,9.60
2019-03-15T23:58:01.877Z,9.60
